Accueil
METAR-TAF:

METAR-TAF

Aéroports :

Arnhem, Pays-Bas

latitude: 52-04N, longitude: 005-53E, altitude: 48 m

Observation

Le bulletin a été fait il y a 35 minutes, à 22:25 UTC
Vent 1 kt de direction variable
Température 12°C
Humidité 88%
Pression 1023 hPa
Visibilité 10 km ou plus
Ciel couvert à une hauteur de 5200 ft

METAR: EHDL 202225Z AUTO VRB01KT 9999 OVC052 12/10 Q1023 BLU

Heure: 01:00 (23:00 UTC)


TAF: absent

Observations et prévisions météorologiques de plus de 4000 aéroports (messages METAR et TAF).

Les stations disponibles sont représentées par des disques jaunes et rouges sur la carte.

Passer la souris dessus pour voir le nom de la station.

Cliquer dessus pour voir les observations et prévisions météorologiques.

Pour changer de carte: cliquez sur les boutons verts avec une croix noire pour zoomer, sur le bouton vert avec un tiret pour effectuer un zoom arrière, ou sur les flèches vertes pour les cartes adjacentes.


METAR-TAF: